Kapalua-West, HI

06:19 PM HST am 20. August 2014 (GMT -1000)
Lahaina | Change Station
CLOSE
Current Station
Flughafen
Location: Lahaina,
Höhe: 256 ft
Wetterstationen in der Umgebung

Höhe 256 ft 20.96 °N, 156.67 °W | Updated 34 minutes ago

Mostly Cloudy
Wolkig
77 °F
gefühlte 77 °F
N
7
Wind Wechselnd Wind aus Nordost

Heute
Max. -- | schwach -- °F
--% Regenrisiko
Gestern
Max. -- | schwach -- °F
Precip. -- inch
6:07 AM 6:52 PM
Letztes Viertel, 17% visible
Druck 29.96 inch
Sichtweite 15.0 Meilen
Wolken Few 3000 ft
Teils Wolkig 5000 ft
Wolkig 7000 ft
Wolkig 10000 ft
Taupunkt 68 °F
Feuchtigkeit 74%
Regen 0.00 inch
Schneehöhe Nicht verfügbar..
UV 0 von 12
Pollen Nicht verfügbar..
Luftqualität Nicht verfügbar..
Flu Activity Nicht verfügbar..
METAR PHJH 210345Z 05006KT 15SM FEW030 SCT050 BKN070 BKN100 25/20 A2996 RMK LAST

More Conditions Fewer Conditions

Druck 29.96 inch
Sichtweite 15.0 Meilen
Wolken Few 3000 ft
Teils Wolkig 5000 ft
Wolkig 7000 ft
Wolkig 10000 ft
Taupunkt 68 °F
Feuchtigkeit 74%
Regen 0.00 inch
Schneehöhe Nicht verfügbar..
UV 0 von 12
Pollen Nicht verfügbar..
Luftqualität Nicht verfügbar..
Flu Activity Nicht verfügbar..
METAR PHJH 210345Z 05006KT 15SM FEW030 SCT050 BKN070 BKN100 25/20 A2996 RMK LAST

More Conditions Fewer Conditions

10-Day Weather Forecast

Almanac

Astronomie

Aug. 20, 2014 Aufgang Untergang
Genaue Zeit 06:07 HST 18:52 HST
Bürgerliche Dämmerung 05:44 HST 19:15 HST
Nautische Dämmerung 05:17 HST 19:42 HST
Astronomische Dämmerung 04:50 HST 20:09 HST
Mond 02:09 HST (8/20) 15:33 HST (8/20)
Länge des sichtbaren Lichts 13h 31m
Tageslänge
12h 45m
Tomorrow will be 1m 5s shorter.
Letztes Viertel, 17% of the Moon is Illuminated
Aug 21
Letztes Viertel
Aug 25
Neu
Sept 2
Erstes Viertel
Sept 8
Vollmond
Sept 15
Letztes Viertel

Heutige Rekorde

State Highs State Lows

Community

WunderPhotos

Upload Photos

1,745,851 Fotos hochgeladen!

Nearby

Schneehöhe

Station Depth Höhe
Kein Neuschnee gemeldet.

Erdbebenaktivität

Stadt Distance Mag. Time & Date
No recent earthquake activity has been reported nearby.
Minimum magnitude displayed is 2.5.

küstennahe Wassertemperaturen

Ort Temperatur
Kein Stationsbericht

Wetterstationen in der Umgebung